Pine Valley, Texas
Current Conditions -  °F | °C
As of 3:53 PM on Friday 24 Oct 2014 (Local Time) from KLFK Reporting Station
Clear Clear  
Wind Chill: 82°   Ceiling: Unl
Heat Index: 82°   Visibility: 10mi
Dew Point: 55°   Wind: 8mph
Humidity: 39%   Direction: 350°N
Pressure: 30.11"   Gusts: NA
Location:  31.1753°N, 94.7371°W
Report Text: KLFK 242053Z AUTO 35007KT 10SM CLR 28/13 A3011 RMK AO2 SLP191 T02780128 56018
Loading
Personal Weather Stations






























Interactive Weather Map
Tropical Storm Tracking
New forecast layout! Learn more

10-Day Weather Forecast

Advertisements
Track Severe Weather on mobile